createdAt,value
2023-04-27T00:00:49.697Z,5.57
2023-04-27T00:03:53.098Z,2.88
2023-04-27T00:06:56.432Z,10.25
2023-04-27T00:09:59.592Z,3.38
2023-04-27T00:13:03.121Z,2.78
2023-04-27T00:16:06.662Z,13.48
2023-04-27T00:19:09.919Z,9.98
2023-04-27T00:22:13.148Z,4.78
2023-04-27T00:25:16.373Z,10.93
2023-04-27T00:28:19.511Z,8.57
2023-04-27T00:31:22.722Z,3.63
2023-04-27T00:34:25.922Z,3.67
2023-04-27T00:37:29.094Z,4.28
2023-04-27T00:40:32.540Z,6.30
2023-04-27T00:43:44.316Z,6.63
2023-04-27T00:46:47.504Z,3.13
2023-04-27T00:49:51.014Z,8.18
2023-04-27T00:52:54.740Z,3.40
2023-04-27T00:55:59.284Z,7.07
2023-04-27T00:59:02.423Z,2.63
2023-04-27T01:02:05.672Z,2.42
2023-04-27T01:05:09.656Z,5.18
2023-04-27T01:08:12.834Z,2.70
2023-04-27T01:11:16.824Z,4.03
2023-04-27T01:14:20.004Z,8.50
2023-04-27T01:17:23.298Z,6.88
2023-04-27T01:20:30.909Z,4.82
2023-04-27T01:23:34.085Z,3.00
2023-04-27T01:26:37.276Z,2.40
2023-04-27T01:29:40.999Z,1.90
2023-04-27T01:32:45.233Z,6.63
2023-04-27T01:35:48.370Z,3.67
2023-04-27T01:38:52.290Z,7.13
2023-04-27T01:41:57.149Z,4.15
2023-04-27T01:45:01.559Z,5.78
2023-04-27T01:48:05.089Z,3.55
2023-04-27T01:51:08.499Z,7.38
2023-04-27T01:54:11.733Z,4.38
2023-04-27T01:57:15.381Z,7.60
2023-04-27T02:00:19.740Z,6.07
2023-04-27T02:03:25.507Z,5.68
2023-04-27T02:06:29.033Z,5.07
2023-04-27T02:09:32.346Z,3.13
2023-04-27T02:12:35.658Z,4.05
2023-04-27T02:15:39.675Z,3.60
2023-04-27T02:18:43.430Z,6.85
2023-04-27T02:21:46.959Z,11.98
2023-04-27T02:24:50.166Z,7.55
2023-04-27T02:27:53.914Z,3.97
2023-04-27T02:30:57.593Z,3.40
2023-04-27T02:34:00.730Z,2.58
2023-04-27T02:37:04.183Z,4.05
2023-04-27T02:40:08.846Z,3.05
2023-04-27T02:43:12.124Z,6.60
2023-04-27T02:46:15.338Z,5.55
2023-04-27T02:49:18.571Z,5.57
2023-04-27T02:52:22.013Z,3.20
2023-04-27T02:55:25.181Z,5.95
2023-04-27T02:58:28.398Z,13.63
2023-04-27T03:01:31.975Z,11.13
2023-04-27T03:04:37.269Z,8.07
2023-04-27T03:07:40.573Z,10.25
2023-04-27T03:10:43.843Z,9.20
2023-04-27T03:13:47.679Z,6.90
2023-04-27T03:16:51.753Z,4.57
2023-04-27T03:19:55.048Z,3.13
2023-04-27T03:23:00.251Z,5.00
2023-04-27T03:26:11.075Z,6.25
2023-04-27T03:29:14.661Z,5.97
2023-04-27T03:32:18.131Z,5.60
2023-04-27T03:35:21.571Z,6.28
2023-04-27T03:38:26.106Z,3.45
2023-04-27T03:41:29.289Z,3.80
2023-04-27T03:44:34.239Z,3.20
2023-04-27T03:47:38.003Z,6.50
2023-04-27T03:50:41.529Z,3.90
2023-04-27T03:53:45.083Z,2.78
2023-04-27T03:56:48.513Z,4.13
2023-04-27T03:59:52.659Z,3.30
2023-04-27T04:02:56.120Z,3.10
2023-04-27T04:05:59.468Z,5.38
2023-04-27T04:09:04.100Z,9.82
2023-04-27T04:12:07.655Z,3.85
2023-04-27T04:15:11.902Z,2.55
2023-04-27T04:18:15.183Z,2.50
2023-04-27T04:21:18.447Z,3.70
2023-04-27T04:24:22.397Z,3.20
2023-04-27T04:27:25.677Z,6.00
2023-04-27T04:30:29.519Z,4.55
2023-04-27T04:33:32.934Z,5.80
2023-04-27T04:36:36.855Z,5.05
2023-04-27T04:39:40.293Z,5.20
2023-04-27T04:42:44.426Z,6.47
2023-04-27T04:45:47.929Z,5.03
2023-04-27T04:48:53.964Z,3.58
2023-04-27T04:51:58.007Z,3.30
2023-04-27T04:55:01.499Z,8.38
2023-04-27T04:58:04.887Z,4.18
2023-04-27T05:01:08.144Z,2.63
2023-04-27T05:04:11.681Z,4.38
2023-04-27T05:07:15.896Z,3.00
2023-04-27T05:10:20.249Z,6.13
2023-04-27T05:13:25.569Z,6.38
2023-04-27T05:16:28.912Z,3.65
2023-04-27T05:19:32.702Z,2.60
2023-04-27T05:22:36.012Z,2.13
2023-04-27T05:25:42.384Z,6.65
2023-04-27T05:28:47.685Z,4.30
2023-04-27T05:31:51.152Z,4.80
2023-04-27T05:34:54.315Z,3.60
2023-04-27T05:37:58.072Z,2.97
2023-04-27T05:41:01.407Z,5.00
2023-04-27T05:44:04.686Z,5.22
2023-04-27T05:47:08.042Z,2.38
2023-04-27T05:50:11.892Z,3.20
2023-04-27T05:53:15.007Z,4.03
2023-04-27T05:56:18.216Z,3.05
2023-04-27T05:59:21.418Z,4.88
2023-04-27T06:02:24.720Z,3.95
2023-04-27T06:05:28.791Z,4.10
2023-04-27T06:08:32.494Z,6.20
2023-04-27T06:11:35.734Z,3.75
2023-04-27T06:14:38.975Z,3.90
2023-04-27T06:17:44.662Z,4.07
2023-04-27T06:20:48.332Z,2.58
2023-04-27T06:23:51.717Z,9.02
2023-04-27T06:26:55.676Z,4.45
2023-04-27T06:29:59.736Z,3.35
2023-04-27T06:33:03.015Z,2.73
2023-04-27T06:36:06.522Z,5.18
2023-04-27T06:39:09.748Z,3.80
2023-04-27T06:42:13.027Z,6.82
2023-04-27T06:45:16.397Z,3.47
2023-04-27T06:48:19.711Z,4.55
2023-04-27T06:51:22.851Z,4.70
2023-04-27T06:54:26.427Z,2.45
2023-04-27T06:57:29.618Z,2.63
2023-04-27T07:00:33.144Z,2.92
2023-04-27T07:03:37.454Z,3.25
2023-04-27T07:06:40.924Z,5.72
2023-04-27T07:09:44.390Z,5.65
2023-04-27T07:12:47.870Z,3.33
2023-04-27T07:16:01.828Z,4.28
2023-04-27T07:19:05.287Z,7.43
2023-04-27T07:22:08.420Z,4.53
2023-04-27T07:25:12.112Z,3.95
2023-04-27T07:28:15.835Z,3.97
2023-04-27T07:31:19.224Z,2.95
2023-04-27T07:34:22.745Z,2.65
2023-04-27T07:37:25.899Z,2.65
2023-04-27T07:40:29.265Z,2.97
2023-04-27T07:43:33.175Z,3.13
2023-04-27T07:46:36.485Z,5.97
2023-04-27T07:49:40.954Z,11.25
2023-04-27T07:52:44.457Z,6.55
2023-04-27T07:55:47.706Z,5.88
2023-04-27T07:58:51.045Z,7.47
2023-04-27T08:01:59.184Z,5.63
2023-04-27T08:05:11.291Z,7.90
2023-04-27T08:08:14.961Z,4.97
2023-04-27T08:11:18.326Z,5.57
2023-04-27T08:14:22.121Z,6.13
2023-04-27T08:17:25.253Z,6.20
2023-04-27T08:20:28.572Z,8.85
2023-04-27T08:23:33.566Z,6.13
2023-04-27T08:26:37.109Z,12.13
2023-04-27T08:29:45.485Z,7.93
2023-04-27T08:32:48.771Z,7.85
2023-04-27T08:35:55.350Z,3.17
2023-04-27T08:38:58.539Z,6.75
2023-04-27T08:42:01.798Z,7.45
2023-04-27T08:45:09.290Z,4.40
2023-04-27T08:48:12.502Z,6.30
2023-04-27T08:51:17.863Z,8.57
2023-04-27T08:54:22.920Z,3.45
2023-04-27T08:57:26.849Z,4.88
2023-04-27T09:00:41.376Z,6.13
2023-04-27T09:03:47.649Z,6.40
2023-04-27T09:06:51.270Z,3.28
2023-04-27T09:10:05.595Z,8.07
2023-04-27T09:13:10.579Z,5.68
2023-04-27T09:19:29.967Z,25.92
2023-04-27T09:22:33.666Z,8.80
2023-04-27T09:25:37.724Z,7.03
2023-04-27T09:28:42.300Z,14.30
2023-04-27T09:31:45.692Z,8.38
2023-04-27T09:34:49.316Z,10.35
2023-04-27T09:37:54.576Z,10.93
2023-04-27T09:44:04.759Z,13.05
2023-04-27T09:47:14.557Z,14.73
2023-04-27T09:50:22.991Z,10.38
2023-04-27T09:53:37.462Z,7.63
2023-04-27T09:57:17.987Z,7.97
2023-04-27T10:00:39.520Z,5.68
2023-04-27T10:04:16.152Z,4.78
2023-04-27T10:07:20.578Z,14.77
2023-04-27T10:10:24.532Z,6.43
2023-04-27T10:13:28.218Z,4.82
2023-04-27T10:16:45.781Z,6.93
2023-04-27T10:20:03.140Z,11.85
2023-04-27T10:23:07.206Z,11.60
2023-04-27T10:26:23.001Z,11.37
2023-04-27T10:29:39.694Z,9.57
2023-04-27T10:33:05.059Z,9.65
2023-04-27T10:36:15.616Z,16.10
2023-04-27T10:39:40.064Z,13.25
2023-04-27T10:42:53.956Z,12.65
2023-04-27T10:46:12.528Z,10.10
2023-04-27T10:49:19.350Z,12.07
2023-04-27T10:52:24.162Z,9.75
2023-04-27T10:55:31.922Z,10.90
2023-04-27T10:58:48.698Z,12.90
2023-04-27T11:01:58.529Z,20.63
2023-04-27T11:05:08.413Z,12.80
2023-04-27T11:08:17.447Z,14.07
2023-04-27T11:11:21.511Z,8.82
2023-04-27T11:14:32.566Z,19.53
2023-04-27T11:17:36.976Z,5.32
2023-04-27T11:20:41.076Z,8.40
2023-04-27T11:23:44.498Z,8.32
2023-04-27T11:26:59.747Z,5.50
2023-04-27T11:33:10.743Z,6.97
2023-04-27T11:36:18.880Z,6.45
2023-04-27T11:39:38.755Z,5.47
2023-04-27T11:42:49.206Z,12.35
2023-04-27T11:45:58.993Z,6.45
2023-04-27T11:49:05.113Z,4.88
2023-04-27T11:52:09.726Z,3.88
2023-04-27T11:58:22.399Z,3.83
2023-04-27T12:01:36.991Z,3.28
2023-04-27T12:04:42.298Z,4.82
2023-04-27T12:07:47.027Z,3.33
2023-04-27T12:10:50.944Z,2.90
2023-04-27T12:13:55.353Z,5.90
2023-04-27T12:17:02.250Z,5.28
2023-04-27T12:20:07.183Z,3.05
2023-04-27T12:23:11.278Z,4.10
2023-04-27T12:26:15.288Z,3.72
2023-04-27T12:29:22.886Z,3.53
2023-04-27T12:32:26.898Z,4.80
2023-04-27T12:35:35.854Z,4.07
2023-04-27T12:38:45.778Z,5.05
2023-04-27T12:41:50.787Z,2.75
2023-04-27T12:44:55.706Z,2.63
2023-04-27T12:48:03.912Z,2.47
2023-04-27T12:51:08.324Z,3.45
2023-04-27T12:54:14.051Z,8.60
2023-04-27T12:57:21.156Z,4.15
2023-04-27T13:00:25.896Z,3.70
2023-04-27T13:03:35.676Z,4.22
2023-04-27T13:06:39.264Z,3.50
2023-04-27T13:09:45.853Z,6.15
2023-04-27T13:12:49.497Z,2.78
2023-04-27T13:15:59.348Z,9.23
2023-04-27T13:27:38.632Z,5.83
2023-04-27T13:30:43.579Z,2.60
2023-04-27T13:36:50.271Z,3.50
2023-04-27T13:39:57.910Z,9.85
2023-04-27T13:43:07.565Z,4.57
2023-04-27T13:46:11.797Z,12.93
2023-04-27T13:49:15.536Z,5.20
2023-04-27T13:52:25.526Z,5.35
2023-04-27T13:55:29.863Z,5.20
2023-04-27T13:58:33.593Z,4.47
2023-04-27T14:01:43.884Z,8.63
2023-04-27T14:04:51.243Z,8.65
2023-04-27T14:07:55.495Z,7.18
2023-04-27T14:11:03.079Z,4.27
2023-04-27T14:14:07.439Z,3.30
2023-04-27T14:17:13.787Z,3.57
2023-04-27T14:20:17.968Z,3.55
2023-04-27T14:23:24.418Z,2.95
2023-04-27T14:26:32.194Z,3.42
2023-04-27T14:29:39.284Z,3.97
2023-04-27T14:32:47.358Z,4.82
2023-04-27T14:35:53.168Z,3.00
2023-04-27T14:38:59.883Z,2.55
2023-04-27T14:42:07.861Z,2.67
2023-04-27T14:45:11.974Z,5.32
2023-04-27T14:48:15.497Z,2.97
2023-04-27T14:51:19.733Z,5.55
2023-04-27T14:54:27.984Z,2.88
2023-04-27T14:57:33.508Z,2.67
2023-04-27T15:00:37.005Z,2.85
2023-04-27T15:03:43.612Z,3.33
2023-04-27T15:06:47.580Z,3.83
2023-04-27T15:09:52.049Z,3.88
2023-04-27T15:12:55.207Z,4.75
2023-04-27T15:16:05.596Z,3.00
2023-04-27T15:19:09.103Z,3.38
2023-04-27T15:22:15.772Z,2.55
2023-04-27T15:25:18.994Z,2.22
2023-04-27T15:28:22.259Z,3.85
2023-04-27T15:31:25.513Z,4.75
2023-04-27T15:34:28.610Z,13.77
2023-04-27T15:37:34.317Z,32.33
2023-04-27T15:40:37.820Z,45.05
2023-04-27T15:43:40.925Z,40.92
2023-04-27T15:46:44.223Z,45.67
2023-04-27T15:49:56.883Z,35.33
2023-04-27T15:53:01.196Z,35.00
2023-04-27T15:56:04.512Z,38.60
2023-04-27T15:59:08.641Z,27.67
2023-04-27T16:02:12.183Z,26.50
2023-04-27T16:05:16.178Z,49.45
2023-04-27T16:08:20.139Z,44.25
2023-04-27T16:11:23.610Z,30.50
2023-04-27T16:14:26.938Z,39.90
2023-04-27T16:17:32.435Z,32.13
2023-04-27T16:20:36.550Z,32.42
2023-04-27T16:23:39.859Z,36.15
2023-04-27T16:26:43.020Z,27.63
2023-04-27T16:29:47.500Z,33.50
2023-04-27T16:32:51.003Z,31.85
2023-04-27T16:35:54.253Z,32.30
2023-04-27T16:38:57.513Z,26.50
2023-04-27T16:42:00.735Z,24.70
2023-04-27T16:45:04.149Z,32.78
2023-04-27T16:48:07.609Z,22.90
2023-04-27T16:51:13.641Z,24.10
2023-04-27T16:54:17.147Z,27.45
2023-04-27T16:57:21.141Z,21.52
2023-04-27T17:00:24.385Z,25.07
2023-04-27T17:03:27.651Z,18.52
2023-04-27T17:06:31.158Z,25.05
2023-04-27T17:09:39.440Z,15.10
2023-04-27T17:12:42.634Z,28.30
2023-04-27T17:15:45.806Z,20.38
2023-04-27T17:18:49.088Z,23.67
2023-04-27T17:21:52.247Z,20.95
2023-04-27T17:24:55.813Z,21.55
2023-04-27T17:28:01.166Z,24.23
2023-04-27T17:31:04.762Z,17.40
2023-04-27T17:34:08.000Z,19.30
2023-04-27T17:37:11.134Z,25.30
2023-04-27T17:40:14.648Z,20.67
2023-04-27T17:43:17.963Z,24.48
2023-04-27T17:46:21.384Z,18.35
2023-04-27T17:49:24.609Z,16.67
2023-04-27T17:52:27.829Z,14.52
2023-04-27T17:55:30.980Z,13.57
2023-04-27T17:58:34.650Z,14.65
2023-04-27T18:01:37.969Z,9.07
2023-04-27T18:04:41.175Z,7.63
2023-04-27T18:07:46.780Z,7.75
2023-04-27T18:10:50.072Z,10.32
2023-04-27T18:13:54.215Z,7.13
2023-04-27T18:16:57.376Z,7.32
2023-04-27T18:20:08.965Z,10.73
2023-04-27T18:23:12.951Z,20.88
2023-04-27T18:26:17.165Z,11.75
2023-04-27T18:29:20.334Z,26.98
2023-04-27T18:32:23.625Z,15.95
2023-04-27T18:35:26.868Z,13.25
2023-04-27T18:38:29.997Z,29.00
2023-04-27T18:41:33.417Z,25.45
2023-04-27T18:44:37.070Z,25.30
2023-04-27T18:47:40.577Z,10.98
2023-04-27T18:50:43.990Z,13.02
2023-04-27T18:53:47.316Z,21.13
2023-04-27T18:56:53.677Z,20.02
2023-04-27T18:59:56.963Z,45.25
2023-04-27T19:03:00.384Z,71.00
2023-04-27T19:06:03.546Z,27.00
2023-04-27T19:09:06.972Z,25.67
2023-04-27T19:12:10.257Z,28.73
2023-04-27T19:15:17.097Z,49.88
2023-04-27T19:18:20.303Z,38.03
2023-04-27T19:21:23.724Z,30.88
2023-04-27T19:24:26.901Z,40.72
2023-04-27T19:27:30.390Z,23.58
2023-04-27T19:30:33.596Z,19.90
2023-04-27T19:33:37.204Z,18.90
2023-04-27T19:36:40.374Z,12.77
2023-04-27T19:39:43.635Z,12.55
2023-04-27T19:42:46.726Z,9.70
2023-04-27T19:45:49.913Z,6.47
2023-04-27T19:48:54.949Z,10.18
2023-04-27T19:51:58.162Z,10.30
2023-04-27T19:55:01.334Z,10.63
2023-04-27T19:58:04.520Z,14.27
2023-04-27T20:01:07.722Z,8.65
2023-04-27T20:04:11.163Z,12.45
2023-04-27T20:07:14.508Z,13.23
2023-04-27T20:10:17.864Z,35.17
2023-04-27T20:13:21.045Z,17.08
2023-04-27T20:16:26.474Z,15.18
2023-04-27T20:19:30.112Z,14.52
2023-04-27T20:22:33.322Z,11.55
2023-04-27T20:25:36.671Z,11.20
2023-04-27T20:28:39.810Z,17.00
2023-04-27T20:31:43.090Z,16.45
2023-04-27T20:34:46.380Z,26.75
2023-04-27T20:37:49.670Z,21.15
2023-04-27T20:40:53.945Z,24.10
2023-04-27T20:43:57.283Z,22.60
2023-04-27T20:47:00.465Z,27.75
2023-04-27T20:50:03.636Z,31.35
2023-04-27T20:53:06.959Z,46.38
2023-04-27T20:56:10.315Z,37.67
2023-04-27T20:59:13.731Z,45.47
2023-04-27T21:02:17.211Z,46.65
2023-04-27T21:05:20.536Z,49.53
2023-04-27T21:08:23.738Z,47.70
2023-04-27T21:11:27.025Z,53.00
2023-04-27T21:14:30.129Z,55.55
2023-04-27T21:17:33.397Z,43.47
2023-04-27T21:20:36.784Z,33.90
2023-04-27T21:23:40.093Z,22.63
2023-04-27T21:26:43.212Z,27.10
2023-04-27T21:29:46.422Z,27.83
2023-04-27T21:32:50.021Z,19.40
2023-04-27T21:36:08.698Z,18.23
2023-04-27T21:39:12.556Z,24.73
2023-04-27T21:42:16.886Z,28.63
2023-04-27T21:45:20.523Z,26.15
2023-04-27T21:48:23.745Z,22.13
2023-04-27T21:51:27.138Z,21.63
2023-04-27T21:54:30.402Z,45.00
2023-04-27T21:57:33.785Z,37.30
2023-04-27T22:00:36.943Z,46.63
2023-04-27T22:03:40.416Z,39.10
2023-04-27T22:06:44.222Z,45.67
2023-04-27T22:09:49.130Z,47.58
2023-04-27T22:12:52.592Z,48.00
2023-04-27T22:15:55.928Z,50.08
2023-04-27T22:19:00.352Z,45.97
2023-04-27T22:22:04.534Z,58.65
2023-04-27T22:25:11.689Z,53.75
2023-04-27T22:28:14.921Z,60.88
2023-04-27T22:31:19.007Z,71.72
2023-04-27T22:34:22.902Z,72.80
2023-04-27T22:37:27.543Z,57.47
2023-04-27T22:40:32.756Z,62.63
2023-04-27T22:43:42.292Z,45.13
2023-04-27T22:46:45.740Z,61.00
2023-04-27T22:49:50.340Z,57.78
2023-04-27T22:56:01.841Z,77.55
2023-04-27T22:59:05.553Z,65.53
2023-04-27T23:02:12.412Z,77.93
2023-04-27T23:05:16.226Z,68.40
2023-04-27T23:08:19.680Z,52.88
2023-04-27T23:11:24.524Z,61.77
2023-04-27T23:14:31.032Z,66.32
2023-04-27T23:17:34.506Z,66.38
2023-04-27T23:20:37.891Z,61.88
2023-04-27T23:23:41.516Z,73.43
2023-04-27T23:26:44.914Z,68.43
2023-04-27T23:29:48.458Z,67.38
2023-04-27T23:32:51.850Z,57.35
2023-04-27T23:35:56.251Z,67.32
2023-04-27T23:38:59.694Z,77.32
2023-04-27T23:42:05.799Z,73.72
2023-04-27T23:45:09.359Z,88.68
2023-04-27T23:48:13.016Z,65.75
2023-04-27T23:51:17.124Z,57.90
2023-04-27T23:54:20.749Z,54.38
2023-04-27T23:57:24.366Z,59.70
